sensor_id;sensor_type;location;lat;lon;timestamp;P1;durP1;ratioP1;P2;durP2;ratioP2
7997;SDS011;4044;49.814;7.828;2023-05-14T00:01:00;10.53;;;6.20;;
7997;SDS011;4044;49.814;7.828;2023-05-14T00:03:25;8.60;;;6.23;;
7997;SDS011;4044;49.814;7.828;2023-05-14T00:05:51;6.40;;;5.80;;
7997;SDS011;4044;49.814;7.828;2023-05-14T00:08:16;5.87;;;5.47;;
7997;SDS011;4044;49.814;7.828;2023-05-14T00:10:42;6.87;;;6.23;;
7997;SDS011;4044;49.814;7.828;2023-05-14T00:13:07;7.03;;;6.37;;
7997;SDS011;4044;49.814;7.828;2023-05-14T00:15:33;6.73;;;6.23;;
7997;SDS011;4044;49.814;7.828;2023-05-14T00:17:59;7.20;;;6.60;;
7997;SDS011;4044;49.814;7.828;2023-05-14T00:20:24;7.37;;;6.67;;
7997;SDS011;4044;49.814;7.828;2023-05-14T00:22:50;7.67;;;6.87;;
7997;SDS011;4044;49.814;7.828;2023-05-14T00:25:15;9.50;;;7.57;;
7997;SDS011;4044;49.814;7.828;2023-05-14T00:27:41;6.93;;;6.43;;
7997;SDS011;4044;49.814;7.828;2023-05-14T00:30:06;7.30;;;6.60;;
7997;SDS011;4044;49.814;7.828;2023-05-14T00:32:32;7.63;;;6.93;;
7997;SDS011;4044;49.814;7.828;2023-05-14T00:34:58;7.20;;;6.50;;
7997;SDS011;4044;49.814;7.828;2023-05-14T00:37:23;7.00;;;6.40;;
7997;SDS011;4044;49.814;7.828;2023-05-14T00:39:49;6.53;;;5.77;;
7997;SDS011;4044;49.814;7.828;2023-05-14T00:42:14;7.37;;;6.60;;
7997;SDS011;4044;49.814;7.828;2023-05-14T00:44:40;7.20;;;6.50;;
7997;SDS011;4044;49.814;7.828;2023-05-14T00:47:06;8.37;;;7.37;;
7997;SDS011;4044;49.814;7.828;2023-05-14T00:49:31;7.50;;;6.80;;
7997;SDS011;4044;49.814;7.828;2023-05-14T00:51:58;7.93;;;7.20;;
7997;SDS011;4044;49.814;7.828;2023-05-14T00:54:24;7.20;;;6.57;;
7997;SDS011;4044;49.814;7.828;2023-05-14T00:56:50;7.67;;;6.97;;
7997;SDS011;4044;49.814;7.828;2023-05-14T00:59:16;9.90;;;6.83;;
7997;SDS011;4044;49.814;7.828;2023-05-14T01:01:42;8.80;;;7.30;;
7997;SDS011;4044;49.814;7.828;2023-05-14T01:04:07;7.27;;;6.67;;
7997;SDS011;4044;49.814;7.828;2023-05-14T01:09:31;8.10;;;7.30;;
7997;SDS011;4044;49.814;7.828;2023-05-14T01:15:16;8.37;;;7.67;;
7997;SDS011;4044;49.814;7.828;2023-05-14T01:17:46;8.17;;;7.47;;
7997;SDS011;4044;49.814;7.828;2023-05-14T01:20:15;7.53;;;6.93;;
7997;SDS011;4044;49.814;7.828;2023-05-14T01:22:41;8.27;;;7.60;;
7997;SDS011;4044;49.814;7.828;2023-05-14T01:25:07;7.90;;;7.27;;
7997;SDS011;4044;49.814;7.828;2023-05-14T01:30:35;7.97;;;6.93;;
7997;SDS011;4044;49.814;7.828;2023-05-14T01:33:09;7.53;;;6.87;;
7997;SDS011;4044;49.814;7.828;2023-05-14T01:35:36;7.87;;;7.07;;
7997;SDS011;4044;49.814;7.828;2023-05-14T01:38:08;7.07;;;6.47;;
7997;SDS011;4044;49.814;7.828;2023-05-14T01:40:36;8.53;;;7.00;;
7997;SDS011;4044;49.814;7.828;2023-05-14T01:43:03;7.70;;;7.10;;
7997;SDS011;4044;49.814;7.828;2023-05-14T01:45:29;8.33;;;7.60;;
7997;SDS011;4044;49.814;7.828;2023-05-14T01:47:55;7.47;;;6.87;;
7997;SDS011;4044;49.814;7.828;2023-05-14T01:50:22;7.50;;;6.80;;
7997;SDS011;4044;49.814;7.828;2023-05-14T01:52:48;8.03;;;7.33;;
7997;SDS011;4044;49.814;7.828;2023-05-14T01:55:15;7.97;;;6.70;;
7997;SDS011;4044;49.814;7.828;2023-05-14T01:57:42;7.40;;;6.73;;
7997;SDS011;4044;49.814;7.828;2023-05-14T02:00:07;6.80;;;6.20;;
7997;SDS011;4044;49.814;7.828;2023-05-14T02:02:33;7.30;;;6.60;;
7997;SDS011;4044;49.814;7.828;2023-05-14T02:04:59;6.57;;;6.00;;
7997;SDS011;4044;49.814;7.828;2023-05-14T02:07:24;6.87;;;6.33;;
7997;SDS011;4044;49.814;7.828;2023-05-14T02:09:50;6.67;;;6.03;;
7997;SDS011;4044;49.814;7.828;2023-05-14T02:12:15;6.93;;;6.33;;
7997;SDS011;4044;49.814;7.828;2023-05-14T02:14:41;7.17;;;6.57;;
7997;SDS011;4044;49.814;7.828;2023-05-14T02:17:06;7.17;;;6.57;;
7997;SDS011;4044;49.814;7.828;2023-05-14T02:19:32;7.67;;;6.97;;
7997;SDS011;4044;49.814;7.828;2023-05-14T02:21:58;7.53;;;6.80;;
7997;SDS011;4044;49.814;7.828;2023-05-14T02:24:24;11.03;;;7.73;;
7997;SDS011;4044;49.814;7.828;2023-05-14T02:26:50;9.50;;;6.40;;
7997;SDS011;4044;49.814;7.828;2023-05-14T02:29:16;7.53;;;6.93;;
7997;SDS011;4044;49.814;7.828;2023-05-14T02:31:41;10.70;;;7.20;;
7997;SDS011;4044;49.814;7.828;2023-05-14T02:34:07;7.93;;;7.33;;
7997;SDS011;4044;49.814;7.828;2023-05-14T02:36:33;8.17;;;7.43;;
7997;SDS011;4044;49.814;7.828;2023-05-14T02:38:59;7.43;;;6.83;;
7997;SDS011;4044;49.814;7.828;2023-05-14T02:41:25;10.17;;;8.10;;
7997;SDS011;4044;49.814;7.828;2023-05-14T02:43:51;7.43;;;6.83;;
7997;SDS011;4044;49.814;7.828;2023-05-14T02:46:17;8.77;;;7.87;;
7997;SDS011;4044;49.814;7.828;2023-05-14T02:48:43;9.17;;;7.60;;
7997;SDS011;4044;49.814;7.828;2023-05-14T02:51:08;9.77;;;8.87;;
7997;SDS011;4044;49.814;7.828;2023-05-14T02:53:34;8.97;;;8.13;;
7997;SDS011;4044;49.814;7.828;2023-05-14T02:56:00;9.70;;;7.87;;
7997;SDS011;4044;49.814;7.828;2023-05-14T02:58:25;8.60;;;7.80;;
7997;SDS011;4044;49.814;7.828;2023-05-14T03:00:51;8.27;;;7.47;;
7997;SDS011;4044;49.814;7.828;2023-05-14T03:03:17;8.03;;;7.33;;
7997;SDS011;4044;49.814;7.828;2023-05-14T03:05:43;8.50;;;7.80;;
7997;SDS011;4044;49.814;7.828;2023-05-14T03:08:09;8.40;;;7.60;;
7997;SDS011;4044;49.814;7.828;2023-05-14T03:10:34;7.07;;;6.47;;
7997;SDS011;4044;49.814;7.828;2023-05-14T03:13:00;8.60;;;7.80;;
7997;SDS011;4044;49.814;7.828;2023-05-14T03:15:25;9.13;;;8.00;;
7997;SDS011;4044;49.814;7.828;2023-05-14T03:17:51;8.23;;;7.43;;
7997;SDS011;4044;49.814;7.828;2023-05-14T03:20:16;8.60;;;7.80;;
7997;SDS011;4044;49.814;7.828;2023-05-14T03:22:42;8.33;;;7.63;;
7997;SDS011;4044;49.814;7.828;2023-05-14T03:25:08;7.93;;;7.23;;
7997;SDS011;4044;49.814;7.828;2023-05-14T03:27:33;8.20;;;7.40;;
7997;SDS011;4044;49.814;7.828;2023-05-14T03:29:59;9.43;;;8.30;;
7997;SDS011;4044;49.814;7.828;2023-05-14T03:32:24;10.00;;;8.07;;
7997;SDS011;4044;49.814;7.828;2023-05-14T03:34:50;10.23;;;7.70;;
7997;SDS011;4044;49.814;7.828;2023-05-14T03:37:16;8.90;;;8.10;;
7997;SDS011;4044;49.814;7.828;2023-05-14T03:39:41;11.50;;;8.67;;
7997;SDS011;4044;49.814;7.828;2023-05-14T03:42:07;9.60;;;7.67;;
7997;SDS011;4044;49.814;7.828;2023-05-14T03:44:32;9.90;;;8.10;;
7997;SDS011;4044;49.814;7.828;2023-05-14T03:46:58;9.20;;;8.20;;
7997;SDS011;4044;49.814;7.828;2023-05-14T03:49:23;9.87;;;8.60;;
7997;SDS011;4044;49.814;7.828;2023-05-14T03:51:49;8.87;;;8.07;;
7997;SDS011;4044;49.814;7.828;2023-05-14T03:54:15;9.60;;;8.70;;
7997;SDS011;4044;49.814;7.828;2023-05-14T03:56:40;9.87;;;8.87;;
7997;SDS011;4044;49.814;7.828;2023-05-14T03:59:06;9.10;;;8.30;;
7997;SDS011;4044;49.814;7.828;2023-05-14T04:01:31;9.73;;;8.33;;
7997;SDS011;4044;49.814;7.828;2023-05-14T04:03:57;8.97;;;8.17;;
7997;SDS011;4044;49.814;7.828;2023-05-14T04:06:22;8.73;;;8.03;;
7997;SDS011;4044;49.814;7.828;2023-05-14T04:08:48;8.83;;;8.03;;
7997;SDS011;4044;49.814;7.828;2023-05-14T04:11:13;7.90;;;7.30;;
7997;SDS011;4044;49.814;7.828;2023-05-14T04:13:39;8.47;;;7.67;;
7997;SDS011;4044;49.814;7.828;2023-05-14T04:16:04;8.50;;;7.70;;
7997;SDS011;4044;49.814;7.828;2023-05-14T04:18:30;9.13;;;8.23;;
7997;SDS011;4044;49.814;7.828;2023-05-14T04:20:59;8.53;;;7.73;;
7997;SDS011;4044;49.814;7.828;2023-05-14T04:23:24;8.90;;;8.20;;
7997;SDS011;4044;49.814;7.828;2023-05-14T04:25:50;9.27;;;8.37;;
7997;SDS011;4044;49.814;7.828;2023-05-14T04:28:15;9.07;;;8.27;;
7997;SDS011;4044;49.814;7.828;2023-05-14T04:30:41;9.80;;;8.77;;
7997;SDS011;4044;49.814;7.828;2023-05-14T04:33:06;8.33;;;7.63;;
7997;SDS011;4044;49.814;7.828;2023-05-14T04:35:32;8.80;;;7.90;;
7997;SDS011;4044;49.814;7.828;2023-05-14T04:37:57;9.17;;;8.27;;
7997;SDS011;4044;49.814;7.828;2023-05-14T04:40:23;8.37;;;7.50;;
7997;SDS011;4044;49.814;7.828;2023-05-14T04:42:49;9.50;;;8.53;;
7997;SDS011;4044;49.814;7.828;2023-05-14T04:45:14;10.30;;;8.63;;
7997;SDS011;4044;49.814;7.828;2023-05-14T04:47:40;8.80;;;8.10;;
7997;SDS011;4044;49.814;7.828;2023-05-14T04:50:06;9.87;;;8.97;;
7997;SDS011;4044;49.814;7.828;2023-05-14T04:52:33;10.47;;;9.50;;
7997;SDS011;4044;49.814;7.828;2023-05-14T04:54:59;10.57;;;9.33;;
7997;SDS011;4044;49.814;7.828;2023-05-14T04:57:25;10.83;;;9.73;;
7997;SDS011;4044;49.814;7.828;2023-05-14T04:59:50;9.90;;;9.00;;
7997;SDS011;4044;49.814;7.828;2023-05-14T05:02:16;9.80;;;8.90;;
7997;SDS011;4044;49.814;7.828;2023-05-14T05:04:41;10.60;;;9.50;;
7997;SDS011;4044;49.814;7.828;2023-05-14T05:07:07;11.20;;;10.10;;
7997;SDS011;4044;49.814;7.828;2023-05-14T05:09:32;11.30;;;9.87;;
7997;SDS011;4044;49.814;7.828;2023-05-14T05:11:58;10.43;;;9.43;;
7997;SDS011;4044;49.814;7.828;2023-05-14T05:14:25;10.37;;;9.17;;
7997;SDS011;4044;49.814;7.828;2023-05-14T05:16:51;10.10;;;9.13;;
7997;SDS011;4044;49.814;7.828;2023-05-14T05:19:16;10.60;;;9.50;;
7997;SDS011;4044;49.814;7.828;2023-05-14T05:21:42;10.07;;;9.17;;
7997;SDS011;4044;49.814;7.828;2023-05-14T05:24:07;10.63;;;9.67;;
7997;SDS011;4044;49.814;7.828;2023-05-14T05:26:33;10.20;;;8.80;;
7997;SDS011;4044;49.814;7.828;2023-05-14T05:29:01;11.03;;;9.93;;
7997;SDS011;4044;49.814;7.828;2023-05-14T05:31:27;10.50;;;9.50;;
7997;SDS011;4044;49.814;7.828;2023-05-14T05:33:53;10.23;;;9.23;;
7997;SDS011;4044;49.814;7.828;2023-05-14T05:36:18;9.70;;;8.90;;
7997;SDS011;4044;49.814;7.828;2023-05-14T05:38:44;10.77;;;9.77;;
7997;SDS011;4044;49.814;7.828;2023-05-14T05:41:10;10.40;;;9.50;;
7997;SDS011;4044;49.814;7.828;2023-05-14T05:43:35;10.37;;;9.47;;
7997;SDS011;4044;49.814;7.828;2023-05-14T05:46:01;10.20;;;9.30;;
7997;SDS011;4044;49.814;7.828;2023-05-14T05:48:26;9.97;;;9.07;;
7997;SDS011;4044;49.814;7.828;2023-05-14T05:50:52;10.17;;;9.17;;
7997;SDS011;4044;49.814;7.828;2023-05-14T05:53:18;10.27;;;9.27;;
7997;SDS011;4044;49.814;7.828;2023-05-14T05:55:43;10.37;;;9.37;;
7997;SDS011;4044;49.814;7.828;2023-05-14T05:58:09;10.87;;;9.87;;
7997;SDS011;4044;49.814;7.828;2023-05-14T06:00:34;10.23;;;9.33;;
7997;SDS011;4044;49.814;7.828;2023-05-14T06:03:00;10.37;;;9.37;;
7997;SDS011;4044;49.814;7.828;2023-05-14T06:05:26;10.70;;;9.70;;
7997;SDS011;4044;49.814;7.828;2023-05-14T06:07:51;9.50;;;8.60;;
7997;SDS011;4044;49.814;7.828;2023-05-14T06:10:17;10.17;;;9.17;;
7997;SDS011;4044;49.814;7.828;2023-05-14T06:12:43;10.23;;;9.10;;
7997;SDS011;4044;49.814;7.828;2023-05-14T06:15:09;10.30;;;9.23;;
7997;SDS011;4044;49.814;7.828;2023-05-14T06:17:36;8.97;;;8.27;;
7997;SDS011;4044;49.814;7.828;2023-05-14T06:20:01;9.47;;;8.57;;
7997;SDS011;4044;49.814;7.828;2023-05-14T06:22:29;8.87;;;8.17;;
7997;SDS011;4044;49.814;7.828;2023-05-14T06:24:55;9.20;;;8.30;;
7997;SDS011;4044;49.814;7.828;2023-05-14T06:27:20;9.53;;;8.70;;
7997;SDS011;4044;49.814;7.828;2023-05-14T06:29:46;8.43;;;7.73;;
7997;SDS011;4044;49.814;7.828;2023-05-14T06:32:11;9.30;;;8.40;;
7997;SDS011;4044;49.814;7.828;2023-05-14T06:34:39;8.63;;;7.77;;
7997;SDS011;4044;49.814;7.828;2023-05-14T06:37:08;7.90;;;7.30;;
7997;SDS011;4044;49.814;7.828;2023-05-14T06:39:34;8.20;;;7.50;;
7997;SDS011;4044;49.814;7.828;2023-05-14T06:42:02;8.47;;;7.77;;
7997;SDS011;4044;49.814;7.828;2023-05-14T06:44:27;9.00;;;8.17;;
7997;SDS011;4044;49.814;7.828;2023-05-14T06:46:53;7.73;;;7.07;;
7997;SDS011;4044;49.814;7.828;2023-05-14T06:49:18;8.27;;;7.47;;
7997;SDS011;4044;49.814;7.828;2023-05-14T06:51:45;8.57;;;7.77;;
7997;SDS011;4044;49.814;7.828;2023-05-14T06:54:10;7.73;;;7.20;;
7997;SDS011;4044;49.814;7.828;2023-05-14T06:56:36;8.20;;;7.50;;
7997;SDS011;4044;49.814;7.828;2023-05-14T06:59:01;8.10;;;7.37;;
7997;SDS011;4044;49.814;7.828;2023-05-14T07:01:27;8.17;;;7.37;;
7997;SDS011;4044;49.814;7.828;2023-05-14T07:03:52;7.30;;;6.70;;
7997;SDS011;4044;49.814;7.828;2023-05-14T07:06:18;7.27;;;6.73;;
7997;SDS011;4044;49.814;7.828;2023-05-14T07:08:43;6.30;;;5.80;;
7997;SDS011;4044;49.814;7.828;2023-05-14T07:11:10;7.07;;;6.47;;
7997;SDS011;4044;49.814;7.828;2023-05-14T07:13:35;6.30;;;5.77;;
7997;SDS011;4044;49.814;7.828;2023-05-14T07:16:01;6.33;;;5.83;;
7997;SDS011;4044;49.814;7.828;2023-05-14T07:18:26;6.03;;;5.63;;
7997;SDS011;4044;49.814;7.828;2023-05-14T07:20:52;6.07;;;5.53;;
7997;SDS011;4044;49.814;7.828;2023-05-14T07:23:18;5.37;;;4.97;;
7997;SDS011;4044;49.814;7.828;2023-05-14T07:25:43;6.33;;;5.33;;
7997;SDS011;4044;49.814;7.828;2023-05-14T07:28:09;6.20;;;5.60;;
7997;SDS011;4044;49.814;7.828;2023-05-14T07:30:34;6.03;;;5.50;;
7997;SDS011;4044;49.814;7.828;2023-05-14T07:33:00;5.40;;;5.00;;
7997;SDS011;4044;49.814;7.828;2023-05-14T07:35:25;5.73;;;5.23;;
7997;SDS011;4044;49.814;7.828;2023-05-14T07:37:51;5.63;;;5.20;;
7997;SDS011;4044;49.814;7.828;2023-05-14T07:40:16;6.93;;;5.60;;
7997;SDS011;4044;49.814;7.828;2023-05-14T07:42:42;5.40;;;5.00;;
7997;SDS011;4044;49.814;7.828;2023-05-14T07:45:08;6.07;;;5.40;;
7997;SDS011;4044;49.814;7.828;2023-05-14T07:47:33;5.50;;;5.10;;
7997;SDS011;4044;49.814;7.828;2023-05-14T07:49:59;5.33;;;4.93;;
7997;SDS011;4044;49.814;7.828;2023-05-14T07:52:25;5.77;;;5.30;;
7997;SDS011;4044;49.814;7.828;2023-05-14T07:54:50;6.13;;;4.80;;
7997;SDS011;4044;49.814;7.828;2023-05-14T07:57:16;5.30;;;4.90;;
7997;SDS011;4044;49.814;7.828;2023-05-14T07:59:42;4.93;;;4.53;;
7997;SDS011;4044;49.814;7.828;2023-05-14T08:02:08;5.38;;;4.97;;
7997;SDS011;4044;49.814;7.828;2023-05-14T08:04:37;4.70;;;4.30;;
7997;SDS011;4044;49.814;7.828;2023-05-14T08:07:03;4.75;;;4.35;;
7997;SDS011;4044;49.814;7.828;2023-05-14T08:09:29;4.82;;;4.50;;
7997;SDS011;4044;49.814;7.828;2023-05-14T08:11:54;5.82;;;5.07;;
7997;SDS011;4044;49.814;7.828;2023-05-14T08:14:20;4.90;;;4.50;;
7997;SDS011;4044;49.814;7.828;2023-05-14T08:16:45;5.53;;;5.13;;
7997;SDS011;4044;49.814;7.828;2023-05-14T08:19:11;5.40;;;4.90;;
7997;SDS011;4044;49.814;7.828;2023-05-14T08:21:37;5.75;;;5.25;;
7997;SDS011;4044;49.814;7.828;2023-05-14T08:24:02;4.63;;;4.32;;
7997;SDS011;4044;49.814;7.828;2023-05-14T08:26:28;5.13;;;4.72;;
7997;SDS011;4044;49.814;7.828;2023-05-14T08:28:54;5.55;;;4.97;;
7997;SDS011;4044;49.814;7.828;2023-05-14T08:31:19;5.50;;;5.10;;
7997;SDS011;4044;49.814;7.828;2023-05-14T08:33:45;5.63;;;5.05;;
7997;SDS011;4044;49.814;7.828;2023-05-14T08:36:10;5.50;;;5.00;;
7997;SDS011;4044;49.814;7.828;2023-05-14T08:38:36;5.45;;;4.97;;
7997;SDS011;4044;49.814;7.828;2023-05-14T08:41:01;5.75;;;5.35;;
7997;SDS011;4044;49.814;7.828;2023-05-14T08:43:31;5.22;;;4.72;;
7997;SDS011;4044;49.814;7.828;2023-05-14T08:46:23;5.22;;;4.82;;
7997;SDS011;4044;49.814;7.828;2023-05-14T08:49:13;6.25;;;5.65;;
7997;SDS011;4044;49.814;7.828;2023-05-14T08:51:53;5.35;;;4.95;;
7997;SDS011;4044;49.814;7.828;2023-05-14T08:54:19;5.43;;;4.93;;
7997;SDS011;4044;49.814;7.828;2023-05-14T08:56:47;5.68;;;5.28;;
7997;SDS011;4044;49.814;7.828;2023-05-14T08:59:15;5.03;;;4.60;;
7997;SDS011;4044;49.814;7.828;2023-05-14T09:01:42;4.32;;;4.03;;
7997;SDS011;4044;49.814;7.828;2023-05-14T09:04:11;5.05;;;4.65;;
7997;SDS011;4044;49.814;7.828;2023-05-14T09:06:39;4.80;;;4.40;;
7997;SDS011;4044;49.814;7.828;2023-05-14T09:09:07;4.35;;;4.05;;
7997;SDS011;4044;49.814;7.828;2023-05-14T09:11:39;4.95;;;4.55;;
7997;SDS011;4044;49.814;7.828;2023-05-14T09:14:09;4.45;;;4.15;;
7997;SDS011;4044;49.814;7.828;2023-05-14T09:16:35;4.43;;;4.03;;
7997;SDS011;4044;49.814;7.828;2023-05-14T09:19:01;4.38;;;4.00;;
7997;SDS011;4044;49.814;7.828;2023-05-14T09:21:28;4.50;;;4.20;;
7997;SDS011;4044;49.814;7.828;2023-05-14T09:23:55;4.88;;;4.40;;
7997;SDS011;4044;49.814;7.828;2023-05-14T09:26:25;4.97;;;4.57;;
7997;SDS011;4044;49.814;7.828;2023-05-14T09:28:57;3.80;;;3.60;;
7997;SDS011;4044;49.814;7.828;2023-05-14T09:31:30;4.22;;;3.85;;
7997;SDS011;4044;49.814;7.828;2023-05-14T09:33:57;4.38;;;3.97;;
7997;SDS011;4044;49.814;7.828;2023-05-14T09:36:23;4.05;;;3.75;;
7997;SDS011;4044;49.814;7.828;2023-05-14T09:38:51;4.20;;;4.00;;
7997;SDS011;4044;49.814;7.828;2023-05-14T09:41:22;4.22;;;4.03;;
7997;SDS011;4044;49.814;7.828;2023-05-14T09:43:51;3.92;;;3.72;;
7997;SDS011;4044;49.814;7.828;2023-05-14T09:46:17;4.07;;;3.67;;
7997;SDS011;4044;49.814;7.828;2023-05-14T09:48:42;3.50;;;3.00;;
7997;SDS011;4044;49.814;7.828;2023-05-14T09:51:09;4.05;;;3.70;;
7997;SDS011;4044;49.814;7.828;2023-05-14T09:53:35;3.80;;;3.47;;
7997;SDS011;4044;49.814;7.828;2023-05-14T09:56:01;3.88;;;3.58;;
7997;SDS011;4044;49.814;7.828;2023-05-14T09:58:27;3.75;;;3.45;;
7997;SDS011;4044;49.814;7.828;2023-05-14T10:00:53;3.47;;;3.17;;
7997;SDS011;4044;49.814;7.828;2023-05-14T10:03:21;3.63;;;3.30;;
7997;SDS011;4044;49.814;7.828;2023-05-14T10:05:50;3.25;;;3.05;;
7997;SDS011;4044;49.814;7.828;2023-05-14T10:08:21;3.08;;;2.88;;
7997;SDS011;4044;49.814;7.828;2023-05-14T10:10:49;3.72;;;3.42;;
7997;SDS011;4044;49.814;7.828;2023-05-14T10:13:16;3.70;;;3.50;;
7997;SDS011;4044;49.814;7.828;2023-05-14T10:15:47;3.60;;;3.40;;
7997;SDS011;4044;49.814;7.828;2023-05-14T10:18:16;4.13;;;3.58;;
7997;SDS011;4044;49.814;7.828;2023-05-14T10:20:44;3.47;;;3.28;;
7997;SDS011;4044;49.814;7.828;2023-05-14T10:23:12;3.70;;;3.40;;
7997;SDS011;4044;49.814;7.828;2023-05-14T10:25:38;3.05;;;2.85;;
7997;SDS011;4044;49.814;7.828;2023-05-14T10:28:04;3.35;;;3.10;;
7997;SDS011;4044;49.814;7.828;2023-05-14T10:30:30;4.13;;;3.13;;
7997;SDS011;4044;49.814;7.828;2023-05-14T10:33:10;2.83;;;2.72;;
7997;SDS011;4044;49.814;7.828;2023-05-14T10:38:27;3.70;;;3.40;;
7997;SDS011;4044;49.814;7.828;2023-05-14T10:41:04;3.35;;;3.15;;
7997;SDS011;4044;49.814;7.828;2023-05-14T10:43:37;3.00;;;2.80;;
7997;SDS011;4044;49.814;7.828;2023-05-14T10:46:04;2.75;;;2.55;;
7997;SDS011;4044;49.814;7.828;2023-05-14T10:48:31;2.88;;;2.67;;
7997;SDS011;4044;49.814;7.828;2023-05-14T10:50:57;2.90;;;2.70;;
7997;SDS011;4044;49.814;7.828;2023-05-14T10:53:31;2.83;;;2.72;;
7997;SDS011;4044;49.814;7.828;2023-05-14T10:56:01;2.90;;;2.80;;
7997;SDS011;4044;49.814;7.828;2023-05-14T10:58:38;3.15;;;2.95;;
7997;SDS011;4044;49.814;7.828;2023-05-14T11:01:08;3.10;;;3.00;;
7997;SDS011;4044;49.814;7.828;2023-05-14T11:03:39;3.20;;;3.00;;
7997;SDS011;4044;49.814;7.828;2023-05-14T11:06:07;3.28;;;3.05;;
7997;SDS011;4044;49.814;7.828;2023-05-14T11:08:34;2.75;;;2.65;;
7997;SDS011;4044;49.814;7.828;2023-05-14T11:11:00;3.28;;;2.90;;
7997;SDS011;4044;49.814;7.828;2023-05-14T11:13:26;2.85;;;2.75;;
7997;SDS011;4044;49.814;7.828;2023-05-14T11:15:52;2.70;;;2.60;;
7997;SDS011;4044;49.814;7.828;2023-05-14T11:20:56;3.10;;;2.92;;
7997;SDS011;4044;49.814;7.828;2023-05-14T11:23:25;2.70;;;2.47;;
7997;SDS011;4044;49.814;7.828;2023-05-14T11:25:52;2.97;;;2.85;;
7997;SDS011;4044;49.814;7.828;2023-05-14T11:28:24;3.10;;;2.90;;
7997;SDS011;4044;49.814;7.828;2023-05-14T11:30:51;3.22;;;3.03;;
7997;SDS011;4044;49.814;7.828;2023-05-14T11:33:18;3.00;;;2.80;;
7997;SDS011;4044;49.814;7.828;2023-05-14T11:35:44;2.75;;;2.65;;
7997;SDS011;4044;49.814;7.828;2023-05-14T11:38:14;2.80;;;2.60;;
7997;SDS011;4044;49.814;7.828;2023-05-14T11:40:53;2.75;;;2.65;;
7997;SDS011;4044;49.814;7.828;2023-05-14T11:43:20;2.70;;;2.60;;
7997;SDS011;4044;49.814;7.828;2023-05-14T11:45:51;2.75;;;2.65;;
7997;SDS011;4044;49.814;7.828;2023-05-14T11:48:18;2.95;;;2.67;;
7997;SDS011;4044;49.814;7.828;2023-05-14T11:50:45;2.97;;;2.75;;
7997;SDS011;4044;49.814;7.828;2023-05-14T11:53:16;3.50;;;2.70;;
7997;SDS011;4044;49.814;7.828;2023-05-14T11:56:00;2.90;;;2.70;;
7997;SDS011;4044;49.814;7.828;2023-05-14T11:58:27;2.75;;;2.55;;
7997;SDS011;4044;49.814;7.828;2023-05-14T12:00:56;3.55;;;2.70;;
7997;SDS011;4044;49.814;7.828;2023-05-14T12:03:22;3.10;;;2.90;;
7997;SDS011;4044;49.814;7.828;2023-05-14T12:05:56;2.92;;;2.83;;
7997;SDS011;4044;49.814;7.828;2023-05-14T12:08:27;2.80;;;2.60;;
7997;SDS011;4044;49.814;7.828;2023-05-14T12:10:53;2.67;;;2.58;;
7997;SDS011;4044;49.814;7.828;2023-05-14T12:13:19;2.97;;;2.72;;
7997;SDS011;4044;49.814;7.828;2023-05-14T12:15:52;2.88;;;2.70;;
7997;SDS011;4044;49.814;7.828;2023-05-14T12:18:20;3.47;;;2.92;;
7997;SDS011;4044;49.814;7.828;2023-05-14T12:20:46;3.00;;;2.80;;
7997;SDS011;4044;49.814;7.828;2023-05-14T12:23:12;3.03;;;2.83;;
7997;SDS011;4044;49.814;7.828;2023-05-14T12:25:38;2.80;;;2.65;;
7997;SDS011;4044;49.814;7.828;2023-05-14T12:28:13;3.05;;;2.80;;
7997;SDS011;4044;49.814;7.828;2023-05-14T12:30:39;2.47;;;2.38;;
7997;SDS011;4044;49.814;7.828;2023-05-14T12:33:05;2.65;;;2.55;;
7997;SDS011;4044;49.814;7.828;2023-05-14T12:35:31;2.40;;;2.30;;
7997;SDS011;4044;49.814;7.828;2023-05-14T12:37:56;3.03;;;2.92;;
7997;SDS011;4044;49.814;7.828;2023-05-14T12:40:22;3.08;;;2.80;;
7997;SDS011;4044;49.814;7.828;2023-05-14T12:42:47;2.65;;;2.45;;
7997;SDS011;4044;49.814;7.828;2023-05-14T12:45:13;3.00;;;2.90;;
7997;SDS011;4044;49.814;7.828;2023-05-14T12:47:38;3.10;;;2.90;;
7997;SDS011;4044;49.814;7.828;2023-05-14T12:50:04;2.70;;;2.60;;
7997;SDS011;4044;49.814;7.828;2023-05-14T12:52:30;2.90;;;2.70;;
7997;SDS011;4044;49.814;7.828;2023-05-14T12:54:56;2.67;;;2.58;;
7997;SDS011;4044;49.814;7.828;2023-05-14T12:57:21;2.63;;;2.53;;
7997;SDS011;4044;49.814;7.828;2023-05-14T12:59:47;2.70;;;2.60;;
7997;SDS011;4044;49.814;7.828;2023-05-14T13:02:12;2.60;;;2.50;;
7997;SDS011;4044;49.814;7.828;2023-05-14T13:04:39;3.22;;;2.63;;
7997;SDS011;4044;49.814;7.828;2023-05-14T13:07:05;2.47;;;2.30;;
7997;SDS011;4044;49.814;7.828;2023-05-14T13:09:32;2.45;;;2.33;;
7997;SDS011;4044;49.814;7.828;2023-05-14T13:11:58;2.45;;;2.30;;
7997;SDS011;4044;49.814;7.828;2023-05-14T13:14:23;2.90;;;2.70;;
7997;SDS011;4044;49.814;7.828;2023-05-14T13:16:49;2.60;;;2.50;;
7997;SDS011;4044;49.814;7.828;2023-05-14T13:19:14;3.28;;;2.97;;
7997;SDS011;4044;49.814;7.828;2023-05-14T13:21:40;2.53;;;2.42;;
7997;SDS011;4044;49.814;7.828;2023-05-14T13:24:05;2.70;;;2.50;;
7997;SDS011;4044;49.814;7.828;2023-05-14T13:26:33;2.83;;;2.70;;
7997;SDS011;4044;49.814;7.828;2023-05-14T13:29:00;2.92;;;2.70;;
7997;SDS011;4044;49.814;7.828;2023-05-14T13:31:25;2.90;;;2.70;;
7997;SDS011;4044;49.814;7.828;2023-05-14T13:33:51;2.40;;;2.30;;
7997;SDS011;4044;49.814;7.828;2023-05-14T13:36:17;2.50;;;2.40;;
7997;SDS011;4044;49.814;7.828;2023-05-14T13:38:42;2.75;;;2.55;;
7997;SDS011;4044;49.814;7.828;2023-05-14T13:41:09;2.47;;;2.38;;
7997;SDS011;4044;49.814;7.828;2023-05-14T13:43:35;2.83;;;2.70;;
7997;SDS011;4044;49.814;7.828;2023-05-14T13:46:01;2.55;;;2.35;;
7997;SDS011;4044;49.814;7.828;2023-05-14T13:48:28;4.18;;;2.90;;
7997;SDS011;4044;49.814;7.828;2023-05-14T13:50:54;3.15;;;2.90;;
7997;SDS011;4044;49.814;7.828;2023-05-14T13:53:21;2.30;;;2.20;;
7997;SDS011;4044;49.814;7.828;2023-05-14T13:55:47;4.68;;;2.28;;
7997;SDS011;4044;49.814;7.828;2023-05-14T13:58:14;2.55;;;2.42;;
7997;SDS011;4044;49.814;7.828;2023-05-14T14:00:40;2.70;;;2.60;;
7997;SDS011;4044;49.814;7.828;2023-05-14T14:03:06;2.60;;;2.50;;
7997;SDS011;4044;49.814;7.828;2023-05-14T14:05:33;2.63;;;2.47;;
7997;SDS011;4044;49.814;7.828;2023-05-14T14:07:59;2.40;;;2.20;;
7997;SDS011;4044;49.814;7.828;2023-05-14T14:10:25;2.60;;;2.40;;
7997;SDS011;4044;49.814;7.828;2023-05-14T14:12:50;3.15;;;2.50;;
7997;SDS011;4044;49.814;7.828;2023-05-14T14:15:16;2.38;;;2.28;;
7997;SDS011;4044;49.814;7.828;2023-05-14T14:17:41;2.20;;;2.10;;
7997;SDS011;4044;49.814;7.828;2023-05-14T14:20:07;2.55;;;2.10;;
7997;SDS011;4044;49.814;7.828;2023-05-14T14:22:33;2.22;;;2.08;;
7997;SDS011;4044;49.814;7.828;2023-05-14T14:24:59;2.78;;;2.45;;
7997;SDS011;4044;49.814;7.828;2023-05-14T14:27:25;2.20;;;2.10;;
7997;SDS011;4044;49.814;7.828;2023-05-14T14:29:51;2.15;;;2.03;;
7997;SDS011;4044;49.814;7.828;2023-05-14T14:32:17;2.22;;;2.03;;
7997;SDS011;4044;49.814;7.828;2023-05-14T14:34:42;2.00;;;1.90;;
7997;SDS011;4044;49.814;7.828;2023-05-14T14:37:08;2.40;;;2.25;;
7997;SDS011;4044;49.814;7.828;2023-05-14T14:39:33;2.20;;;2.10;;
7997;SDS011;4044;49.814;7.828;2023-05-14T14:42:00;2.00;;;1.90;;
7997;SDS011;4044;49.814;7.828;2023-05-14T14:44:25;2.20;;;2.10;;
7997;SDS011;4044;49.814;7.828;2023-05-14T14:46:51;2.55;;;2.10;;
7997;SDS011;4044;49.814;7.828;2023-05-14T14:49:16;1.80;;;1.80;;
7997;SDS011;4044;49.814;7.828;2023-05-14T14:51:42;2.30;;;2.20;;
7997;SDS011;4044;49.814;7.828;2023-05-14T14:54:07;2.15;;;1.95;;
7997;SDS011;4044;49.814;7.828;2023-05-14T14:56:33;2.45;;;2.30;;
7997;SDS011;4044;49.814;7.828;2023-05-14T14:58:59;2.58;;;2.38;;
7997;SDS011;4044;49.814;7.828;2023-05-14T15:01:25;2.20;;;2.10;;
7997;SDS011;4044;49.814;7.828;2023-05-14T15:03:50;2.28;;;2.10;;
7997;SDS011;4044;49.814;7.828;2023-05-14T15:06:16;2.13;;;2.03;;
7997;SDS011;4044;49.814;7.828;2023-05-14T15:08:41;2.22;;;2.13;;
7997;SDS011;4044;49.814;7.828;2023-05-14T15:11:07;2.25;;;2.15;;
7997;SDS011;4044;49.814;7.828;2023-05-14T15:13:33;2.58;;;2.30;;
7997;SDS011;4044;49.814;7.828;2023-05-14T15:15:58;2.40;;;2.13;;
7997;SDS011;4044;49.814;7.828;2023-05-14T15:18:24;2.17;;;2.08;;
7997;SDS011;4044;49.814;7.828;2023-05-14T15:20:50;2.50;;;2.20;;
7997;SDS011;4044;49.814;7.828;2023-05-14T15:23:16;2.10;;;2.00;;
7997;SDS011;4044;49.814;7.828;2023-05-14T15:25:42;2.20;;;2.10;;